Airfield :
LOGIN :

Register | Disclaimer

   EN    FR    IT 

 










Legend :    VFR   Marginal VFR   IFR   Intensive IFR   Very Intensive IFR
Visi :
Ceiling :
>= 8 km
>= 3000ft
5 to 8 km
1000 to 3000 ft
1500m to 5 km
500 to 1000 ft
800 to 1500m
200 to 500 ft
< 800m
< 200 ft
Symbols :   Thunderstorms  Fog  Heavy snow  Heavy precipitations  Wind > 20 kt
SIGMETs :     Misc.  Thunderstorms  Icing  Turbulence  Mountain Waves  Volcanic Ashes






- Airport Elevation : 19 ft
- IATA code : LCY


EGLC - London City

CURRENT METAR :
  • 220350Z AUTO 24008KT 9999 NCD 03/01 Q0989

EXPIRED METARs :
  • 220320Z AUTO 25010KT 9999 NCD 03/01 Q0989
  • 220250Z AUTO 24011KT 9999 NCD 04/01 Q0989
  • 220220Z AUTO 24009KT 9999 NCD 04/01 Q0989
  • 220150Z AUTO 25010KT 9999 NCD 04/01 Q0988
  • 220120Z AUTO 25010KT 9999 NCD 04/01 Q0988

TAF TAF EGLC
Valid from the 22 at 03:00 until the 22 at 12:00 UTC


220153Z 2203/2212 25008KT 9999 FEW035
PROB30 2203/2210 8000
ATIS : +44 20 7646 0224



MET'MAP, your aeronautical weather chart ! - Copyright ORBIFLY December 2007 - Disclaimer

ORBIFLY MET'MAP TEAM :

Programming & Development : Alexandra Zaïnal
Concept & original design : Baudouin d'Aumeries
Assistance for programming : Marc-Olivier Méhu
Technical & hardware support : Manuel Goepfert

Contact : metmap@orbifly.com




SOURCES & CREDITS :

   NOAA